Time;durP1;ratioP1;P1;durP2;ratioP2;P2;SDS_P1;SDS_P2;PMS_P1;PMS_P2;Temp;Humidity;BMP_temperature;BMP_pressure;BME280_temperature;BME280_humidity;BME280_pressure;Samples;Min_cycle;Max_cycle;Signal;HPM_P1;HPM_P2
2023/07/29 00:00:14;;;;;;;3.40;1.77;;;;;;;15.33;100.00;99534.16;5033946;28;20053;-92
2023/07/29 00:02:39;;;;;;;6.10;2.80;;;;;;;15.43;100.00;99538.50;5033986;28;20060;-91
2023/07/29 00:05:05;;;;;;;6.57;2.15;;;;;;;15.43;100.00;99547.13;5033724;28;20432;-92
2023/07/29 00:07:30;;;;;;;4.78;2.20;;;;;;;15.34;100.00;99538.41;5033996;28;20022;-93
2023/07/29 00:09:56;;;;;;;4.05;1.75;;;;;;;15.32;100.00;99532.53;5033818;28;20018;-92
2023/07/29 00:12:21;;;;;;;5.32;2.10;;;;;;;15.34;100.00;99533.22;5033545;28;20025;-92
2023/07/29 00:14:46;;;;;;;6.97;2.10;;;;;;;15.19;100.00;99525.03;5033659;28;20018;-92
2023/07/29 00:17:12;;;;;;;6.57;2.35;;;;;;;15.18;100.00;99518.19;5031805;28;20029;-92
2023/07/29 00:19:37;;;;;;;5.78;2.40;;;;;;;15.23;100.00;99517.75;5033977;28;20029;-92
2023/07/29 00:22:02;;;;;;;5.10;2.15;;;;;;;15.23;100.00;99512.56;5015978;28;20033;-92
2023/07/29 00:24:28;;;;;;;5.10;2.72;;;;;;;15.13;100.00;99504.78;5033583;28;20021;-92
2023/07/29 00:26:53;;;;;;;6.55;2.38;;;;;;;15.11;100.00;99495.50;5033592;28;20459;-92
2023/07/29 00:29:18;;;;;;;7.07;1.92;;;;;;;15.12;100.00;99504.94;5033492;28;20487;-91
2023/07/29 00:31:44;;;;;;;7.25;2.42;;;;;;;15.16;100.00;99499.31;5033188;28;20458;-91
2023/07/29 00:34:09;;;;;;;6.45;2.55;;;;;;;15.25;100.00;99496.84;5033418;28;20463;-91
2023/07/29 00:36:34;;;;;;;14.75;2.90;;;;;;;15.08;100.00;99493.19;5033159;28;20048;-92
2023/07/29 00:38:59;;;;;;;7.25;2.70;;;;;;;15.07;100.00;99494.97;5033445;28;20113;-91
2023/07/29 00:41:25;;;;;;;7.03;2.38;;;;;;;15.09;100.00;99487.00;5033251;28;20037;-91
2023/07/29 00:43:51;;;;;;;6.25;2.42;;;;;;;15.19;100.00;99486.03;5033110;28;20033;-92
2023/07/29 00:46:17;;;;;;;5.97;2.35;;;;;;;15.14;100.00;99484.81;5014089;28;20025;-92
2023/07/29 00:48:42;;;;;;;8.07;2.08;;;;;;;15.14;100.00;99490.00;5032962;28;20056;-90
2023/07/29 00:51:08;;;;;;;6.80;2.65;;;;;;;15.07;100.00;99494.13;5032772;28;20040;-91
2023/07/29 00:53:33;;;;;;;10.77;2.80;;;;;;;15.05;100.00;99490.88;5032850;28;20463;-91
2023/07/29 00:55:59;;;;;;;7.90;2.75;;;;;;;15.09;100.00;99487.81;5014940;28;20113;-92
2023/07/29 00:58:24;;;;;;;5.88;2.45;;;;;;;15.12;100.00;99487.56;5032653;28;20032;-92
2023/07/29 01:00:50;;;;;;;7.25;2.58;;;;;;;15.12;100.00;99484.16;5014817;28;20040;-91
2023/07/29 01:03:16;;;;;;;8.02;2.92;;;;;;;15.09;100.00;99487.00;5032532;28;20025;-91
2023/07/29 01:05:58;;;;;;;4.60;2.40;;;;;;;15.01;100.00;99486.91;5032660;28;20049;-91
2023/07/29 01:08:44;;;;;;;6.72;2.72;;;;;;;15.10;100.00;99475.69;5032232;28;20529;-91
2023/07/29 01:11:28;;;;;;;6.88;2.90;;;;;;;15.07;100.00;99486.31;5032653;28;20506;-91
2023/07/29 01:14:01;;;;;;;5.57;2.47;;;;;;;14.97;100.00;99484.59;5014671;28;20104;-91
2023/07/29 01:16:51;;;;;;;5.38;2.92;;;;;;;14.94;100.00;99484.84;5030476;28;20029;-91
2023/07/29 01:19:43;;;;;;;10.70;2.92;;;;;;;15.02;100.00;99478.13;5032285;28;20030;-91
2023/07/29 01:22:11;;;;;;;7.40;2.60;;;;;;;15.10;100.00;99467.88;5022443;28;20037;-92
2023/07/29 01:24:36;;;;;;;11.65;4.03;;;;;;;15.07;100.00;99476.78;5032256;28;20029;-91
2023/07/29 01:27:04;;;;;;;6.53;2.88;;;;;;;15.13;100.00;99470.19;5014770;28;20424;-91
2023/07/29 01:29:30;;;;;;;4.75;2.17;;;;;;;15.09;100.00;99474.03;5014498;28;20053;-92
2023/07/29 01:31:58;;;;;;;8.25;2.35;;;;;;;15.10;100.00;99473.88;5032067;28;20049;-92
2023/07/29 01:34:32;;;;;;;6.05;2.40;;;;;;;14.98;100.00;99470.63;5032006;28;20026;-91
2023/07/29 01:36:59;;;;;;;9.60;3.10;;;;;;;14.96;100.00;99469.13;5014152;28;20039;-92
2023/07/29 01:39:28;;;;;;;6.70;2.75;;;;;;;14.93;100.00;99474.63;5032130;28;20479;-91
2023/07/29 01:41:54;;;;;;;7.68;2.75;;;;;;;14.92;100.00;99475.56;5032374;28;20025;-91
2023/07/29 01:44:19;;;;;;;12.40;3.22;;;;;;;14.91;100.00;99466.94;5032024;28;20493;-91
2023/07/29 01:46:46;;;;;;;5.05;2.22;;;;;;;14.93;100.00;99467.63;5030626;28;20044;-91
2023/07/29 01:49:12;;;;;;;3.85;2.17;;;;;;;14.90;100.00;99472.28;5031985;28;20108;-92
2023/07/29 01:51:37;;;;;;;6.78;2.55;;;;;;;14.84;100.00;99468.47;5032080;28;20120;-91
2023/07/29 01:54:03;;;;;;;4.53;2.35;;;;;;;14.80;100.00;99469.69;5031947;28;20097;-91
2023/07/29 01:56:28;;;;;;;7.47;2.38;;;;;;;14.83;100.00;99461.63;5031865;28;20374;-90
2023/07/29 01:58:53;;;;;;;8.05;2.67;;;;;;;14.82;100.00;99462.59;5014089;28;20055;-91
2023/07/29 02:01:19;;;;;;;8.13;2.42;;;;;;;14.85;100.00;99477.06;5013982;28;20064;-91
2023/07/29 02:03:44;;;;;;;6.68;2.25;;;;;;;14.77;100.00;99464.78;5031993;28;20021;-92
2023/07/29 02:06:10;;;;;;;4.40;2.00;;;;;;;14.81;100.00;99465.34;5043336;28;20028;-91
2023/07/29 02:08:35;;;;;;;6.68;2.50;;;;;;;14.77;100.00;99467.38;5036192;28;20375;-91
2023/07/29 02:11:00;;;;;;;6.25;1.80;;;;;;;14.79;100.00;99468.06;5012993;28;20072;-91
2023/07/29 02:13:26;;;;;;;7.10;2.50;;;;;;;14.68;100.00;99460.41;5013485;28;20488;-92
2023/07/29 02:15:51;;;;;;;7.70;2.25;;;;;;;14.72;100.00;99457.41;5029520;28;20322;-91
2023/07/29 02:18:17;;;;;;;4.13;1.63;;;;;;;14.67;100.00;99469.16;5012057;28;20125;-91
2023/07/29 02:20:48;;;;;;;2.55;1.75;;;;;;;14.68;100.00;99474.25;5032508;28;20029;-92
2023/07/29 02:23:14;;;;;;;6.05;2.55;;;;;;;14.69;100.00;99467.25;5035566;28;20033;-91
2023/07/29 02:25:40;;;;;;;6.53;2.45;;;;;;;14.67;100.00;99476.97;5035740;28;20109;-91
2023/07/29 02:28:05;;;;;;;7.38;2.40;;;;;;;14.60;100.00;99466.28;5034377;28;20392;-91
2023/07/29 02:30:30;;;;;;;8.52;2.08;;;;;;;14.58;100.00;99457.00;5035551;28;20430;-91
2023/07/29 02:32:55;;;;;;;6.65;2.17;;;;;;;14.52;100.00;99459.16;5035664;28;20360;-91
2023/07/29 02:35:21;;;;;;;7.72;2.97;;;;;;;14.66;100.00;99464.94;5035289;28;20049;-92
2023/07/29 02:37:46;;;;;;;6.13;2.58;;;;;;;14.62;100.00;99458.38;5017839;28;20072;-91
2023/07/29 02:40:11;;;;;;;5.80;2.58;;;;;;;14.61;100.00;99456.75;5017461;28;20046;-91
2023/07/29 02:42:37;;;;;;;4.47;1.88;;;;;;;14.59;100.00;99451.69;5017554;28;20099;-92
2023/07/29 02:45:03;;;;;;;9.02;2.20;;;;;;;14.62;100.00;99459.19;5034426;28;20022;-91
2023/07/29 02:47:28;;;;;;;8.00;2.83;;;;;;;14.60;100.00;99461.09;5034976;28;20029;-91
2023/07/29 02:49:53;;;;;;;3.33;2.03;;;;;;;14.61;100.00;99454.97;5017404;28;20025;-91
2023/07/29 02:52:19;;;;;;;5.95;2.17;;;;;;;14.54;100.00;99454.69;5035245;28;20499;-91
2023/07/29 02:54:44;;;;;;;6.78;2.25;;;;;;;14.57;100.00;99455.38;5034937;28;20049;-91
2023/07/29 02:57:09;;;;;;;3.40;2.55;;;;;;;14.68;100.00;99457.81;5017354;28;20036;-92
2023/07/29 02:59:35;;;;;;;9.52;2.17;;;;;;;14.61;100.00;99452.38;5017268;28;20153;-91
2023/07/29 03:02:00;;;;;;;6.95;2.65;;;;;;;14.65;100.00;99452.91;5034920;28;20071;-91
2023/07/29 03:04:25;;;;;;;7.13;2.40;;;;;;;14.65;100.00;99452.91;5034823;28;20025;-91
2023/07/29 03:06:51;;;;;;;4.28;2.08;;;;;;;14.58;100.00;99451.81;5017205;28;20148;-91
2023/07/29 03:09:16;;;;;;;4.32;2.28;;;;;;;14.56;100.00;99449.38;5034988;28;20025;-91
2023/07/29 03:11:42;;;;;;;4.90;2.20;;;;;;;14.54;100.00;99451.28;5034816;28;20030;-91
2023/07/29 03:14:07;;;;;;;8.13;2.38;;;;;;;14.51;100.00;99449.75;5016805;28;20037;-91
2023/07/29 03:16:32;;;;;;;5.35;2.10;;;;;;;14.55;100.00;99456.31;5033463;28;20034;-91
2023/07/29 03:19:00;;;;;;;4.68;2.13;;;;;;;14.48;100.00;99457.78;5016822;28;20036;-90
2023/07/29 03:21:25;;;;;;;5.95;1.80;;;;;;;14.46;100.00;99459.72;5016754;28;20071;-91
2023/07/29 03:23:50;;;;;;;7.80;2.38;;;;;;;14.51;100.00;99452.34;5034430;28;20021;-90
2023/07/29 03:26:16;;;;;;;5.20;2.88;;;;;;;14.46;100.00;99449.34;5034290;28;20028;-90
2023/07/29 03:28:43;;;;;;;5.15;2.47;;;;;;;14.47;100.00;99448.38;5035008;28;20030;-90
2023/07/29 03:31:09;;;;;;;6.78;1.80;;;;;;;14.49;100.00;99456.03;5016384;28;20117;-91
2023/07/29 03:33:34;;;;;;;4.30;2.30;;;;;;;14.46;100.00;99449.34;5034310;28;20025;-91
2023/07/29 03:36:00;;;;;;;5.80;2.03;;;;;;;14.45;100.00;99452.88;5034435;28;20025;-91
2023/07/29 03:38:25;;;;;;;7.90;2.40;;;;;;;14.38;100.00;99456.16;5033919;28;20048;-91
2023/07/29 03:40:51;;;;;;;4.72;2.45;;;;;;;14.36;100.00;99453.69;5034286;28;20026;-91
2023/07/29 03:43:17;;;;;;;5.72;2.13;;;;;;;14.33;100.00;99459.16;5033907;28;20112;-91
2023/07/29 03:45:42;;;;;;;7.32;2.05;;;;;;;14.25;100.00;99454.66;5032869;28;20069;-91
2023/07/29 03:48:08;;;;;;;5.30;1.85;;;;;;;14.26;100.00;99453.69;5034185;28;20036;-91
2023/07/29 03:50:35;;;;;;;3.35;2.30;;;;;;;14.23;100.00;99450.56;5034201;28;20067;-91
2023/07/29 03:53:01;;;;;;;6.07;2.10;;;;;;;14.18;100.00;99450.16;5033841;28;20117;-91
2023/07/29 03:55:27;;;;;;;4.10;2.25;;;;;;;14.21;100.00;99450.69;5033998;28;20033;-91
2023/07/29 03:57:52;;;;;;;6.45;2.40;;;;;;;14.25;100.00;99451.25;5033858;28;20057;-92
2023/07/29 04:00:18;;;;;;;6.85;1.92;;;;;;;14.18;100.00;99444.97;5033740;28;20040;-92
2023/07/29 04:02:45;;;;;;;4.57;1.92;;;;;;;14.11;100.00;99450.69;5016143;28;20037;-90
2023/07/29 04:05:10;;;;;;;12.50;2.35;;;;;;;14.22;100.00;99446.34;5033776;28;20017;-91
2023/07/29 04:07:36;;;;;;;6.28;2.35;;;;;;;14.12;100.00;99446.34;5033937;28;20027;-91
2023/07/29 04:10:02;;;;;;;3.30;2.15;;;;;;;14.08;100.00;99458.75;5033730;28;20033;-91
2023/07/29 04:12:27;;;;;;;6.40;2.17;;;;;;;14.04;100.00;99453.94;5033489;28;20542;-90
2023/07/29 04:14:53;;;;;;;10.23;2.17;;;;;;;14.09;100.00;99460.41;5032288;28;20030;-92
2023/07/29 04:17:18;;;;;;;2.88;1.95;;;;;;;14.03;100.00;99453.13;5032821;28;20034;-92
2023/07/29 04:19:44;;;;;;;5.30;2.13;;;;;;;14.26;100.00;99463.25;5015914;28;20498;-91
2023/07/29 04:22:09;;;;;;;7.40;2.60;;;;;;;14.18;100.00;99457.94;5033509;28;20025;-91
2023/07/29 04:24:34;;;;;;;7.32;2.33;;;;;;;14.12;100.00;99462.72;5033302;28;20033;-91
2023/07/29 04:27:00;;;;;;;11.10;2.95;;;;;;;14.02;100.00;99467.06;5033351;28;20025;-91
2023/07/29 04:29:25;;;;;;;4.80;1.83;;;;;;;13.97;100.00;99468.41;5033365;28;20021;-91
2023/07/29 04:31:51;;;;;;;6.28;2.50;;;;;;;14.00;100.00;99463.78;5033013;28;20510;-91
2023/07/29 04:34:18;;;;;;;7.85;2.95;;;;;;;14.00;100.00;99465.56;5015473;28;20475;-92
2023/07/29 04:36:43;;;;;;;7.03;2.40;;;;;;;14.01;100.00;99465.41;5015386;28;20052;-92
2023/07/29 04:39:09;;;;;;;7.20;2.65;;;;;;;14.06;100.00;99458.06;5033076;28;20476;-92
2023/07/29 04:41:34;;;;;;;3.55;2.58;;;;;;;14.01;100.00;99455.03;5033092;28;20018;-92
2023/07/29 04:43:59;;;;;;;6.13;2.47;;;;;;;13.97;100.00;99458.84;5032304;28;20067;-92
2023/07/29 04:46:25;;;;;;;6.47;2.70;;;;;;;13.98;100.00;99460.50;5032234;28;20491;-91
2023/07/29 04:48:50;;;;;;;3.78;2.15;;;;;;;14.04;100.00;99457.34;5032808;28;20108;-91
2023/07/29 04:51:15;;;;;;;5.20;2.50;;;;;;;14.03;100.00;99458.31;5032865;28;20375;-92
2023/07/29 04:53:41;;;;;;;8.77;2.80;;;;;;;14.09;100.00;99463.00;5032774;28;20025;-91
2023/07/29 04:56:06;;;;;;;10.65;3.05;;;;;;;14.18;100.00;99460.53;5032778;28;20029;-91
2023/07/29 04:58:34;;;;;;;10.35;2.55;;;;;;;14.16;100.00;99473.63;5015091;28;20117;-91
2023/07/29 05:01:00;;;;;;;5.60;2.38;;;;;;;14.20;100.00;99471.59;5032750;28;20025;-91
2023/07/29 05:03:26;;;;;;;5.43;2.53;;;;;;;14.30;100.00;99472.44;5032796;28;20044;-90
2023/07/29 05:05:53;;;;;;;6.93;3.15;;;;;;;14.25;100.00;99467.63;5032679;28;20498;-91
2023/07/29 05:08:18;;;;;;;5.93;2.72;;;;;;;14.34;100.00;99482.41;5014922;28;20037;-91
2023/07/29 05:10:44;;;;;;;8.98;2.78;;;;;;;14.33;100.00;99474.75;5032584;28;20091;-91
2023/07/29 05:13:09;;;;;;;5.05;2.75;;;;;;;14.38;100.00;99471.75;5014826;28;20234;-91
2023/07/29 05:15:34;;;;;;;6.97;2.22;;;;;;;14.44;100.00;99479.81;5031545;28;20021;-91
2023/07/29 05:18:00;;;;;;;8.30;2.72;;;;;;;14.47;100.00;99478.72;5032417;28;20364;-91
2023/07/29 05:20:25;;;;;;;6.60;2.20;;;;;;;14.49;100.00;99480.22;5032615;28;20025;-91
2023/07/29 05:22:50;;;;;;;6.15;2.58;;;;;;;14.66;100.00;99476.16;5014758;28;20096;-91
2023/07/29 05:25:16;;;;;;;7.07;2.70;;;;;;;14.68;100.00;99473.41;5032245;28;20064;-90
2023/07/29 05:27:41;;;;;;;9.52;3.33;;;;;;;14.80;100.00;99482.69;5032295;28;20094;-91
2023/07/29 05:30:07;;;;;;;5.28;2.40;;;;;;;14.78;100.00;99484.63;5032194;28;20112;-91
2023/07/29 05:32:33;;;;;;;5.35;2.75;;;;;;;14.85;100.00;99477.06;5032215;28;20033;-91
2023/07/29 05:34:58;;;;;;;5.35;2.40;;;;;;;14.89;100.00;99476.66;5032241;28;20033;-91
2023/07/29 05:37:24;;;;;;;4.70;2.20;;;;;;;14.97;100.00;99474.19;5032072;28;20104;-91
2023/07/29 05:39:49;;;;;;;6.82;2.55;;;;;;;15.07;100.00;99473.34;5032211;28;20025;-90
2023/07/29 05:42:14;;;;;;;5.90;2.60;;;;;;;15.20;100.00;99474.69;5014406;28;20113;-91
2023/07/29 05:44:40;;;;;;;7.20;2.28;;;;;;;15.29;100.00;99475.63;5030109;28;20527;-91
2023/07/29 05:47:05;;;;;;;6.07;3.08;;;;;;;15.36;100.00;99473.25;5032020;28;20482;-91
2023/07/29 05:49:30;;;;;;;4.68;2.33;;;;;;;15.40;100.00;99478.03;5032163;28;20387;-90
2023/07/29 05:51:56;;;;;;;9.20;2.30;;;;;;;15.41;100.00;99479.69;5014345;28;20057;-90
2023/07/29 05:54:21;;;;;;;9.13;2.20;;;;;;;15.47;100.00;99474.88;5031600;28;20022;-91
2023/07/29 05:56:47;;;;;;;5.60;2.15;;;;;;;15.61;100.00;99474.41;5031678;28;20112;-91
2023/07/29 05:59:12;;;;;;;6.53;2.05;;;;;;;15.65;100.00;99478.31;5031881;28;20030;-90
2023/07/29 06:01:37;;;;;;;7.20;2.58;;;;;;;15.86;100.00;99485.94;5014100;28;20483;-90
2023/07/29 06:04:03;;;;;;;7.55;2.13;;;;;;;15.97;100.00;99482.28;5032311;28;20049;-90
2023/07/29 06:06:28;;;;;;;7.32;2.38;;;;;;;16.06;100.00;99481.44;5014243;28;20028;-91
2023/07/29 06:08:54;;;;;;;4.53;1.60;;;;;;;16.10;100.00;99482.78;5032360;28;20024;-91
2023/07/29 06:11:19;;;;;;;7.05;2.33;;;;;;;16.17;100.00;99483.84;5014165;28;20048;-91
2023/07/29 06:13:47;;;;;;;5.90;2.10;;;;;;;16.25;100.00;99483.91;5012685;28;20054;-90
2023/07/29 06:16:13;;;;;;;7.38;1.80;;;;;;;16.15;100.00;99479.75;5030804;28;20040;-90
2023/07/29 06:18:38;;;;;;;4.28;2.03;;;;;;;16.14;100.00;99481.53;5031744;28;20030;-91
2023/07/29 06:21:07;;;;;;;9.13;2.33;;;;;;;16.14;100.00;99478.94;5031889;28;20049;-91
2023/07/29 06:23:33;;;;;;;7.68;2.08;;;;;;;16.36;100.00;99487.25;5013948;28;20036;-90
2023/07/29 06:26:00;;;;;;;5.55;1.95;;;;;;;16.33;100.00;99487.53;5014004;28;20017;-90
2023/07/29 06:28:26;;;;;;;9.30;2.28;;;;;;;16.55;100.00;99489.69;5031735;28;20021;-91
2023/07/29 06:30:51;;;;;;;6.70;2.08;;;;;;;16.69;100.00;99490.97;5031586;28;20497;-90
2023/07/29 06:33:16;;;;;;;9.07;2.20;;;;;;;16.67;100.00;99488.50;5031458;28;20514;-91
2023/07/29 06:35:42;;;;;;;4.68;1.88;;;;;;;16.95;100.00;99485.81;5013873;28;20028;-92
2023/07/29 06:38:07;;;;;;;6.80;2.15;;;;;;;16.80;100.00;99485.56;5031641;28;20057;-90
2023/07/29 06:40:32;;;;;;;7.15;1.92;;;;;;;16.77;100.00;99490.19;5014002;28;20036;-91
2023/07/29 06:42:58;;;;;;;5.50;1.88;;;;;;;17.15;100.00;99493.44;5031595;28;20026;-91
2023/07/29 06:45:23;;;;;;;6.00;2.13;;;;;;;18.62;93.68;99493.94;5030307;28;20036;-91
2023/07/29 06:47:48;;;;;;;9.95;2.33;;;;;;;19.48;84.13;99494.31;5013701;28;20029;-91
2023/07/29 06:50:14;;;;;;;7.05;1.85;;;;;;;20.63;74.21;99494.53;5031604;28;20029;-91
2023/07/29 06:52:40;;;;;;;7.25;2.20;;;;;;;18.69;84.39;99494.91;5031442;28;20032;-91
2023/07/29 06:55:06;;;;;;;12.52;2.22;;;;;;;17.87;90.25;99505.22;5031374;28;20057;-91
2023/07/29 06:57:32;;;;;;;6.85;2.50;;;;;;;17.65;93.95;99501.34;5031558;28;20392;-90
2023/07/29 06:59:57;;;;;;;6.63;1.65;;;;;;;17.26;97.38;99498.38;5031471;28;20033;-91
2023/07/29 07:02:22;;;;;;;8.98;2.15;;;;;;;17.26;100.00;99511.41;5031392;28;20526;-91
2023/07/29 07:04:48;;;;;;;6.82;1.70;;;;;;;16.98;100.00;99506.38;5032109;28;20454;-90
2023/07/29 07:07:16;;;;;;;6.65;1.80;;;;;;;16.89;100.00;99500.25;5048004;28;20407;-90
2023/07/29 07:09:41;;;;;;;4.55;1.60;;;;;;;16.88;100.00;99513.47;5034611;28;20022;-90
2023/07/29 07:12:07;;;;;;;5.05;1.50;;;;;;;16.85;100.00;99516.34;5034852;28;20025;-91
2023/07/29 07:14:33;;;;;;;8.80;1.52;;;;;;;16.69;100.00;99512.63;5032381;28;20533;-90
2023/07/29 07:16:58;;;;;;;5.35;1.38;;;;;;;16.73;100.00;99510.53;5013802;28;20029;-91
2023/07/29 07:19:24;;;;;;;7.63;1.70;;;;;;;16.74;100.00;99512.16;5033420;28;20075;-89
2023/07/29 07:21:49;;;;;;;3.78;1.08;;;;;;;17.04;98.09;99513.56;5033600;28;20104;-91
2023/07/29 07:24:14;;;;;;;10.18;2.20;;;;;;;18.48;89.39;99508.44;5034140;28;20025;-91
2023/07/29 07:26:40;;;;;;;8.68;1.45;;;;;;;17.82;91.37;99509.28;5030114;28;20033;-89
2023/07/29 07:29:05;;;;;;;7.32;2.05;;;;;;;17.30;94.75;99513.56;5032920;28;20022;-93
2023/07/29 07:31:33;;;;;;;9.82;1.90;;;;;;;18.99;84.11;99508.31;5033383;28;20030;-90
2023/07/29 07:33:59;;;;;;;6.55;1.38;;;;;;;18.99;82.22;99516.97;5034793;28;20030;-89
2023/07/29 07:36:24;;;;;;;5.75;1.58;;;;;;;18.71;84.21;99518.28;5049120;28;20096;-90
2023/07/29 07:38:49;;;;;;;6.35;1.70;;;;;;;19.45;81.64;99516.41;5054583;28;20029;-90
2023/07/29 07:41:15;;;;;;;5.32;1.80;;;;;;;19.10;81.41;99518.44;5036777;28;20036;-91
2023/07/29 07:43:41;;;;;;;8.02;1.48;;;;;;;18.80;79.12;99512.09;5049640;28;20029;-90
2023/07/29 07:46:06;;;;;;;10.38;2.00;;;;;;;19.01;79.62;99516.81;5038569;28;20026;-92
2023/07/29 07:48:33;;;;;;;9.48;2.30;;;;;;;19.00;78.68;99528.28;5032473;28;20040;-93
2023/07/29 07:50:58;;;;;;;5.35;1.02;;;;;;;19.65;77.56;99530.75;5033181;28;20026;-92
2023/07/29 07:53:25;;;;;;;5.80;1.25;;;;;;;21.72;66.44;99524.63;5033709;28;20013;-91
2023/07/29 07:55:51;;;;;;;5.20;1.00;;;;;;;22.64;64.25;99531.94;5044106;28;20071;-91
2023/07/29 07:58:16;;;;;;;8.90;1.58;;;;;;;21.67;65.43;99526.19;5053742;28;20422;-93
2023/07/29 08:00:41;;;;;;;7.40;1.65;;;;;;;23.76;58.75;99524.22;5053603;28;20053;-91
2023/07/29 08:03:07;;;;;;;6.85;1.63;;;;;;;22.18;62.14;99527.00;5035711;28;20029;-91
2023/07/29 08:05:32;;;;;;;3.75;1.15;;;;;;;21.18;63.69;99530.13;5041955;28;20075;-91
2023/07/29 08:07:57;;;;;;;7.78;1.27;;;;;;;21.72;63.83;99527.25;5036533;28;20072;-90
2023/07/29 08:10:24;;;;;;;9.50;1.90;;;;;;;22.19;62.26;99528.63;5033846;28;20522;-91
2023/07/29 08:12:49;;;;;;;7.55;1.45;;;;;;;22.14;61.75;99530.16;5033461;28;20029;-91
2023/07/29 08:15:14;;;;;;;7.32;2.72;;;;;;;21.20;62.54;99533.38;5019783;28;20025;-90
2023/07/29 08:17:40;;;;;;;8.60;1.30;;;;;;;20.83;63.89;99535.03;5042179;28;20083;-90
2023/07/29 08:20:06;;;;;;;11.55;2.80;;;;;;;20.94;65.74;99534.59;5030955;28;20037;-91
2023/07/29 08:22:31;;;;;;;10.55;1.65;;;;;;;22.38;60.38;99529.03;5033885;28;20041;-93
2023/07/29 08:24:57;;;;;;;6.10;1.75;;;;;;;22.00;60.87;99529.22;5038491;28;20017;-95
2023/07/29 08:27:22;;;;;;;18.25;2.35;;;;;;;22.19;60.61;99533.06;5036803;28;20057;-93
2023/07/29 08:29:49;;;;;;;8.32;1.67;;;;;;;22.75;57.97;99532.41;5033482;28;20049;-95
2023/07/29 08:32:14;;;;;;;7.10;1.35;;;;;;;23.21;58.46;99534.63;5032342;28;20034;-93
2023/07/29 08:34:39;;;;;;;6.45;1.58;;;;;;;24.10;55.43;99537.31;5033405;28;20022;-92
2023/07/29 08:37:05;;;;;;;10.63;1.90;;;;;;;24.06;52.64;99532.66;5039494;28;20029;-93
2023/07/29 08:39:30;;;;;;;8.00;2.67;;;;;;;24.11;52.91;99533.66;5032903;28;20029;-93
2023/07/29 08:42:04;;;;;;;7.50;1.30;;;;;;;23.79;52.77;99529.09;5033143;28;20109;-93
2023/07/29 08:44:41;;;;;;;4.93;1.67;;;;;;;23.02;55.46;99550.09;5029302;28;20405;-93
2023/07/29 08:47:07;;;;;;;5.72;1.35;;;;;;;22.02;57.25;99549.06;5015295;28;20021;-92
2023/07/29 08:49:33;;;;;;;10.80;2.33;;;;;;;21.70;60.00;99545.03;5032736;28;20541;-92
2023/07/29 08:51:59;;;;;;;8.80;1.40;;;;;;;20.85;62.17;99546.16;5033145;28;20037;-92
2023/07/29 08:54:25;;;;;;;9.15;1.85;;;;;;;21.14;61.41;99545.44;5032807;28;20055;-93
2023/07/29 08:56:51;;;;;;;3.58;1.13;;;;;;;21.59;60.66;99551.53;5033930;28;20542;-93
2023/07/29 08:59:17;;;;;;;6.60;1.30;;;;;;;21.79;60.59;99554.41;5033297;28;20026;-93
2023/07/29 09:01:43;;;;;;;5.05;1.05;;;;;;;22.37;58.24;99551.09;5032741;28;20439;-93
2023/07/29 09:04:09;;;;;;;7.60;1.25;;;;;;;22.37;57.47;99561.59;5015444;28;20017;-93
2023/07/29 09:06:36;;;;;;;5.10;1.00;;;;;;;22.05;57.64;99558.41;5034132;28;20037;-93
2023/07/29 09:09:02;;;;;;;6.85;1.20;;;;;;;21.82;58.80;99560.31;5032917;28;20025;-93
2023/07/29 09:11:28;;;;;;;6.57;1.83;;;;;;;21.85;59.47;99557.31;5032917;28;20029;-93
2023/07/29 09:13:53;;;;;;;12.05;3.63;;;;;;;21.84;59.03;99560.94;5013653;28;20025;-94
2023/07/29 09:16:25;;;;;;;4.97;1.35;;;;;;;21.44;58.32;99570.94;5017137;28;20029;-95
2023/07/29 09:18:51;;;;;;;7.68;1.40;;;;;;;21.90;57.16;99554.97;5034219;28;20033;-93
2023/07/29 09:21:25;;;;;;;4.65;1.00;;;;;;;21.63;57.78;99565.13;5014695;28;20024;-94
2023/07/29 09:23:51;;;;;;;5.78;2.15;;;;;;;21.16;59.19;99569.66;5032895;28;20047;-94
2023/07/29 09:26:27;;;;;;;5.75;1.27;;;;;;;20.94;61.63;99566.06;5017187;28;20113;-94
2023/07/29 09:28:54;;;;;;;7.53;1.05;;;;;;;21.00;61.33;99576.88;5032896;28;20032;-96
2023/07/29 09:31:21;;;;;;;7.25;1.38;;;;;;;20.51;62.21;99570.16;5014755;28;20483;-93
2023/07/29 09:33:47;;;;;;;5.00;1.02;;;;;;;20.48;62.62;99571.31;5031839;28;20468;-95
2023/07/29 09:36:13;;;;;;;6.53;0.95;;;;;;;20.80;62.29;99564.25;5031682;28;20116;-94
2023/07/29 09:38:39;;;;;;;4.93;1.45;;;;;;;22.14;59.34;99569.59;5032056;28;20029;-93
2023/07/29 09:41:04;;;;;;;4.15;1.10;;;;;;;22.30;56.78;99565.97;5031913;28;20112;-94
2023/07/29 09:43:32;;;;;;;5.22;0.90;;;;;;;23.01;57.56;99564.25;5013137;28;20071;-94
2023/07/29 09:46:02;;;;;;;5.40;1.00;;;;;;;23.46;55.45;99567.41;5020766;28;20026;-96
2023/07/29 09:48:31;;;;;;;7.85;1.30;;;;;;;23.83;52.01;99559.34;5012832;28;20030;-94
2023/07/29 09:50:56;;;;;;;4.35;0.95;;;;;;;23.79;51.85;99553.63;5030747;28;20036;-94
2023/07/29 09:53:22;;;;;;;5.65;1.02;;;;;;;23.47;51.39;99553.22;5030504;28;20395;-94
2023/07/29 09:55:50;;;;;;;6.63;1.08;;;;;;;24.39;51.68;99566.22;5040358;28;20052;-95
2023/07/29 09:58:19;;;;;;;3.58;1.63;;;;;;;23.72;51.62;99558.03;5051330;28;20047;-93
2023/07/29 10:00:45;;;;;;;6.80;1.02;;;;;;;24.96;49.83;99567.53;5054007;28;20032;-94
2023/07/29 10:03:13;;;;;;;3.63;0.82;;;;;;;24.84;49.29;99569.94;5042162;28;20036;-93
2023/07/29 10:05:39;;;;;;;3.40;0.73;;;;;;;24.57;50.36;99563.84;5025778;28;20116;-96
2023/07/29 10:08:05;;;;;;;6.53;0.98;;;;;;;23.91;49.09;99559.97;5012900;28;20057;-94
2023/07/29 10:10:31;;;;;;;4.07;0.90;;;;;;;23.59;50.88;99555.31;5009374;28;20055;-94
2023/07/29 10:12:56;;;;;;;3.90;1.02;;;;;;;23.58;52.50;99557.16;5023627;28;20029;-95
2023/07/29 10:15:22;;;;;;;4.50;1.50;;;;;;;23.46;51.95;99567.41;5037033;28;20052;-93
2023/07/29 10:17:49;;;;;;;8.10;1.25;;;;;;;23.16;51.79;99565.97;5051358;28;20072;-93
2023/07/29 10:20:15;;;;;;;4.80;1.00;;;;;;;24.28;49.86;99564.97;5025713;28;20025;-92
2023/07/29 10:22:42;;;;;;;3.35;0.68;;;;;;;23.92;48.74;99571.31;5031060;28;20029;-92
2023/07/29 10:25:13;;;;;;;5.18;0.70;;;;;;;23.73;48.60;99567.59;5032937;28;20527;-94
2023/07/29 10:28:04;;;;;;;3.63;0.85;;;;;;;24.88;47.08;99586.22;5031148;28;20553;-92
2023/07/29 10:30:31;;;;;;;4.70;0.90;;;;;;;24.99;47.20;99577.66;5030793;28;20040;-92
2023/07/29 10:32:58;;;;;;;7.05;1.52;;;;;;;25.10;48.16;99563.06;5012434;28;20030;-93
2023/07/29 10:35:25;;;;;;;8.15;1.05;;;;;;;25.17;47.21;99572.63;5034873;28;20094;-90
2023/07/29 10:37:52;;;;;;;6.47;0.95;;;;;;;25.57;46.84;99575.19;5041235;28;20025;-95
2023/07/29 10:40:17;;;;;;;4.07;1.10;;;;;;;25.14;46.49;99586.22;5011732;28;20112;-92
2023/07/29 10:43:03;;;;;;;5.63;1.08;;;;;;;24.51;46.57;99580.47;5031809;28;20109;-94
2023/07/29 10:45:38;;;;;;;7.28;0.93;;;;;;;22.91;48.80;99584.78;5026759;28;20286;-92
2023/07/29 10:48:32;;;;;;;3.85;0.90;;;;;;;23.52;48.17;99586.09;5033172;28;20036;-92
2023/07/29 10:51:29;;;;;;;14.35;1.35;;;;;;;23.91;49.56;99581.03;5026467;28;20108;-92
2023/07/29 10:53:58;;;;;;;11.40;1.20;;;;;;;25.16;46.62;99584.16;5033406;28;20049;-96
2023/07/29 10:56:35;;;;;;;4.70;1.08;;;;;;;24.53;47.92;99599.53;5033589;28;20040;-96
2023/07/29 10:59:12;;;;;;;12.18;1.60;;;;;;;24.10;48.22;99605.06;5017170;28;20057;-96
2023/07/29 11:01:43;;;;;;;4.93;1.15;;;;;;;23.24;49.51;99610.63;5017003;28;20026;-95
2023/07/29 11:04:23;;;;;;;6.18;1.17;;;;;;;22.78;50.98;99621.50;5050657;28;20459;-94
2023/07/29 11:07:03;;;;;;;4.70;1.30;;;;;;;22.41;52.31;99615.44;5054146;28;20387;-94
2023/07/29 11:09:47;;;;;;;8.98;1.30;;;;;;;22.10;52.85;99619.09;5054928;28;20037;-94
2023/07/29 11:12:35;;;;;;;7.07;1.25;;;;;;;22.74;54.17;99607.09;5054269;28;20026;-94
2023/07/29 11:15:10;;;;;;;5.22;0.90;;;;;;;23.72;51.15;99615.97;5054540;28;20495;-93
2023/07/29 11:17:36;;;;;;;7.50;2.00;;;;;;;24.15;51.30;99607.94;5044446;28;20034;-94
2023/07/29 11:20:03;;;;;;;11.98;1.50;;;;;;;23.74;50.11;99598.19;5032441;28;20028;-95
2023/07/29 11:22:29;;;;;;;8.63;1.42;;;;;;;23.32;50.42;99607.03;5016667;28;20032;-94
2023/07/29 11:24:54;;;;;;;7.55;2.05;;;;;;;24.00;49.38;99612.53;5016694;28;20112;-94